createdAt,value
2017-11-29T00:02:00.973Z,53.20
2017-11-29T00:04:29.358Z,54.60
2017-11-29T00:06:57.595Z,53.30
2017-11-29T00:09:26.219Z,56.10
2017-11-29T00:11:54.478Z,56.40
2017-11-29T00:14:22.738Z,56.10
2017-11-29T00:16:50.968Z,56.00
2017-11-29T00:19:19.370Z,57.90
2017-11-29T00:21:48.020Z,61.30
2017-11-29T00:24:16.293Z,61.30
2017-11-29T00:26:44.584Z,58.30
2017-11-29T00:29:13.542Z,60.10
2017-11-29T00:31:41.791Z,59.80
2017-11-29T00:34:10.035Z,56.10
2017-11-29T00:36:38.274Z,57.00
2017-11-29T00:39:06.522Z,61.20
2017-11-29T00:41:35.239Z,61.50
2017-11-29T00:44:03.480Z,61.50
2017-11-29T00:46:32.126Z,62.60
2017-11-29T00:49:00.737Z,62.60
2017-11-29T00:51:28.996Z,63.70
2017-11-29T00:53:57.291Z,65.30
2017-11-29T00:56:25.577Z,66.60
2017-11-29T00:58:54.210Z,64.20
2017-11-29T01:01:22.461Z,64.20
2017-11-29T01:03:50.713Z,60.30
2017-11-29T01:06:18.952Z,60.30
2017-11-29T01:08:47.189Z,61.30
2017-11-29T01:11:15.465Z,58.00
2017-11-29T01:13:43.710Z,59.40
2017-11-29T01:16:12.340Z,57.60
2017-11-29T01:18:40.582Z,57.60
2017-11-29T01:21:09.251Z,55.80
2017-11-29T01:23:37.531Z,55.80
2017-11-29T01:26:05.824Z,55.20
2017-11-29T01:28:34.469Z,54.50
2017-11-29T01:31:02.727Z,54.50
2017-11-29T01:33:31.030Z,54.50
2017-11-29T01:35:59.269Z,53.20
2017-11-29T01:38:27.530Z,54.60
2017-11-29T01:40:56.059Z,54.20
2017-11-29T01:43:24.298Z,53.20
2017-11-29T01:45:52.914Z,54.60
2017-11-29T01:48:21.181Z,55.40
2017-11-29T01:50:49.441Z,54.90
2017-11-29T01:53:17.730Z,53.60
2017-11-29T01:55:45.989Z,53.30
2017-11-29T01:58:14.278Z,54.30
2017-11-29T02:00:48.467Z,56.90
2017-11-29T02:03:16.699Z,55.80
2017-11-29T02:05:44.970Z,55.10
2017-11-29T02:08:13.249Z,54.50
2017-11-29T02:10:41.491Z,56.00
2017-11-29T02:13:09.744Z,55.10
2017-11-29T02:15:38.031Z,57.70
2017-11-29T02:18:06.325Z,59.70
2017-11-29T02:20:34.779Z,60.40
2017-11-29T02:23:03.033Z,57.40
2017-11-29T02:25:31.278Z,58.90
2017-11-29T02:27:59.518Z,56.60
2017-11-29T02:30:27.804Z,56.70
2017-11-29T02:32:56.052Z,57.30
2017-11-29T02:35:24.315Z,60.30
2017-11-29T02:37:53.205Z,62.80
2017-11-29T02:40:33.627Z,62.40
2017-11-29T02:43:02.737Z,62.40
2017-11-29T02:45:31.393Z,58.80
2017-11-29T02:48:00.099Z,58.80
2017-11-29T02:50:28.360Z,57.70
2017-11-29T02:52:56.622Z,56.40
2017-11-29T02:55:24.882Z,55.50
2017-11-29T02:57:53.121Z,55.40
2017-11-29T03:00:21.759Z,55.20
2017-11-29T03:02:50.076Z,55.20
2017-11-29T03:05:18.319Z,56.10
2017-11-29T03:07:46.567Z,55.80
2017-11-29T03:10:14.854Z,55.80
2017-11-29T03:12:43.103Z,57.60
2017-11-29T03:15:11.345Z,58.20
2017-11-29T03:17:39.626Z,57.90
2017-11-29T03:20:08.277Z,58.30
2017-11-29T03:22:36.510Z,58.30
2017-11-29T03:25:05.194Z,58.50
2017-11-29T03:27:33.855Z,55.40
2017-11-29T03:30:02.141Z,55.40
2017-11-29T03:32:30.826Z,57.90
2017-11-29T03:34:59.462Z,56.90
2017-11-29T03:37:28.084Z,56.90
2017-11-29T03:39:57.066Z,57.30
2017-11-29T03:42:25.309Z,57.30
2017-11-29T03:44:54.052Z,56.70
2017-11-29T03:47:22.399Z,53.20
2017-11-29T03:49:50.643Z,53.50
2017-11-29T03:52:18.878Z,57.60
2017-11-29T03:54:48.526Z,56.30
2017-11-29T03:57:17.041Z,56.30
2017-11-29T03:59:45.318Z,59.40
2017-11-29T04:02:14.158Z,56.90
2017-11-29T04:04:42.830Z,58.50
2017-11-29T04:07:11.456Z,62.10
2017-11-29T04:09:39.849Z,62.10
2017-11-29T04:12:08.340Z,61.70
2017-11-29T04:14:36.591Z,59.20
2017-11-29T04:17:04.873Z,60.00
2017-11-29T04:19:33.156Z,61.70
2017-11-29T04:22:01.390Z,63.50
2017-11-29T04:24:29.739Z,63.50
2017-11-29T04:26:57.975Z,67.40
2017-11-29T04:29:26.218Z,62.80
2017-11-29T04:31:54.522Z,62.80
2017-11-29T04:34:22.810Z,63.90
2017-11-29T04:36:51.045Z,63.30
2017-11-29T04:39:19.407Z,61.30
2017-11-29T04:41:47.668Z,62.40
2017-11-29T04:44:15.933Z,60.30
2017-11-29T04:46:44.238Z,62.10
2017-11-29T04:49:12.880Z,60.80
2017-11-29T04:51:41.567Z,60.80
2017-11-29T04:54:09.832Z,62.20
2017-11-29T04:56:38.074Z,57.60
2017-11-29T04:59:06.716Z,60.80
2017-11-29T05:01:35.011Z,60.80
2017-11-29T05:04:03.670Z,58.50
2017-11-29T05:06:31.941Z,58.50
2017-11-29T05:09:00.235Z,56.00
2017-11-29T05:11:28.494Z,55.80
2017-11-29T05:13:56.738Z,55.50
2017-11-29T05:16:25.007Z,56.00
2017-11-29T05:18:53.251Z,53.30
2017-11-29T05:21:21.520Z,53.90
2017-11-29T05:23:49.776Z,54.60
2017-11-29T05:26:18.044Z,55.70
2017-11-29T05:28:46.634Z,54.60
2017-11-29T05:31:14.889Z,56.40
2017-11-29T05:33:43.133Z,54.10
2017-11-29T05:36:11.386Z,58.20
2017-11-29T05:38:40.245Z,58.30
2017-11-29T05:41:08.527Z,58.30
2017-11-29T05:43:36.800Z,56.10
2017-11-29T05:46:05.864Z,57.60
2017-11-29T05:48:34.102Z,61.50
2017-11-29T05:51:02.761Z,60.30
2017-11-29T05:53:31.036Z,60.30
2017-11-29T05:55:59.318Z,59.10
2017-11-29T05:58:28.691Z,60.10
2017-11-29T06:00:57.149Z,58.00
2017-11-29T06:03:25.437Z,58.50
2017-11-29T06:05:53.693Z,56.00
2017-11-29T06:08:21.922Z,57.20
2017-11-29T06:10:50.194Z,57.60
2017-11-29T06:13:18.446Z,56.30
2017-11-29T06:15:47.096Z,57.00
2017-11-29T06:18:16.040Z,54.90
2017-11-29T06:20:44.420Z,56.00
2017-11-29T06:23:12.802Z,56.10
2017-11-29T06:25:41.017Z,57.60
2017-11-29T06:28:09.281Z,59.40
2017-11-29T06:30:37.552Z,56.40
2017-11-29T06:33:06.261Z,59.50
2017-11-29T06:35:34.804Z,59.50
2017-11-29T06:38:03.159Z,61.90
2017-11-29T06:40:31.631Z,62.20
2017-11-29T06:42:59.897Z,62.10
2017-11-29T06:45:28.200Z,63.00
2017-11-29T06:47:56.453Z,63.30
2017-11-29T06:50:24.711Z,66.70
2017-11-29T06:52:53.005Z,64.90
2017-11-29T06:55:21.265Z,63.00
2017-11-29T06:57:49.574Z,62.20
2017-11-29T07:00:17.877Z,57.30
2017-11-29T07:02:46.137Z,58.20
2017-11-29T07:05:14.407Z,60.00
2017-11-29T07:07:42.682Z,59.80
2017-11-29T07:10:11.278Z,56.10
2017-11-29T07:12:39.536Z,57.90
2017-11-29T07:15:07.819Z,59.80
2017-11-29T07:17:36.062Z,64.00
2017-11-29T07:20:04.297Z,62.80
2017-11-29T07:22:32.574Z,64.90
2017-11-29T07:25:00.846Z,66.60
2017-11-29T07:27:29.721Z,63.30
2017-11-29T07:29:58.001Z,62.60
2017-11-29T07:32:27.147Z,58.50
2017-11-29T07:34:57.232Z,59.20
2017-11-29T07:37:26.944Z,60.40
2017-11-29T07:40:01.732Z,58.20
2017-11-29T07:42:35.140Z,58.80
2017-11-29T07:45:12.702Z,60.60
2017-11-29T07:47:43.692Z,60.00
2017-11-29T07:50:12.310Z,60.00
2017-11-29T07:52:40.904Z,57.70
2017-11-29T07:55:10.691Z,59.10
2017-11-29T07:57:43.256Z,57.90
2017-11-29T08:00:12.760Z,58.30
2017-11-29T08:02:44.402Z,57.40
2017-11-29T08:05:15.155Z,58.30
2017-11-29T08:07:46.075Z,57.30
2017-11-29T08:10:14.685Z,57.70
2017-11-29T08:12:47.862Z,58.60
2017-11-29T08:15:20.511Z,58.90
2017-11-29T08:17:50.752Z,60.40
2017-11-29T08:20:23.887Z,61.00
2017-11-29T08:22:53.332Z,59.40
2017-11-29T08:25:21.691Z,60.10
2017-11-29T08:27:49.966Z,56.00
2017-11-29T08:30:18.518Z,55.50
2017-11-29T08:32:57.059Z,57.70
2017-11-29T08:35:25.503Z,56.10
2017-11-29T08:37:53.858Z,56.90
2017-11-29T08:40:22.541Z,51.50
2017-11-29T08:42:51.063Z,51.50
2017-11-29T08:45:19.352Z,54.10
2017-11-29T08:47:47.609Z,51.40
2017-11-29T08:50:16.293Z,52.60
2017-11-29T08:52:44.930Z,48.70
2017-11-29T08:55:13.411Z,48.70
2017-11-29T08:57:41.666Z,48.40
2017-11-29T09:00:09.948Z,44.60
2017-11-29T09:02:38.260Z,45.00
2017-11-29T09:05:06.569Z,42.20
2017-11-29T09:07:35.216Z,39.00
2017-11-29T09:10:03.542Z,39.00
2017-11-29T09:12:31.855Z,43.90
2017-11-29T09:15:00.098Z,40.90
2017-11-29T09:17:28.421Z,36.60
2017-11-29T09:19:56.772Z,38.20
2017-11-29T09:22:25.063Z,39.10
2017-11-29T09:24:53.385Z,41.30
2017-11-29T09:27:21.664Z,36.90
2017-11-29T09:29:49.998Z,37.60
2017-11-29T09:32:18.291Z,42.70
2017-11-29T09:34:46.568Z,37.10
2017-11-29T09:37:14.817Z,35.10
2017-11-29T09:39:43.179Z,39.40
2017-11-29T09:42:11.455Z,32.50
2017-11-29T09:44:39.703Z,39.60
2017-11-29T09:47:08.062Z,36.80
2017-11-29T09:49:36.883Z,28.50
2017-11-29T09:52:06.113Z,31.30
2017-11-29T09:54:34.778Z,30.80
2017-11-29T09:57:03.035Z,30.80
2017-11-29T09:59:31.319Z,33.80
2017-11-29T10:01:59.857Z,32.60
2017-11-29T10:04:29.102Z,31.60
2017-11-29T10:06:57.346Z,31.30
2017-11-29T10:09:26.426Z,32.20
2017-11-29T10:11:54.704Z,29.80
2017-11-29T10:14:22.971Z,28.40
2017-11-29T10:16:51.289Z,34.80
2017-11-29T10:19:19.582Z,29.00
2017-11-29T10:21:47.844Z,26.50
2017-11-29T10:24:16.233Z,26.80
2017-11-29T10:26:44.473Z,29.70
2017-11-29T10:29:12.757Z,31.10
2017-11-29T10:31:41.072Z,27.50
2017-11-29T10:34:09.330Z,29.00
2017-11-29T10:36:37.735Z,29.20
2017-11-29T10:39:06.003Z,27.40
2017-11-29T10:41:34.258Z,35.10
2017-11-29T10:44:02.923Z,35.90
2017-11-29T10:46:31.291Z,25.80
2017-11-29T10:48:59.616Z,27.00
2017-11-29T10:51:27.932Z,28.10
2017-11-29T10:53:56.201Z,32.60
2017-11-29T10:56:24.470Z,34.70
2017-11-29T10:58:52.731Z,32.20
2017-11-29T11:01:21.005Z,26.40
2017-11-29T11:03:50.420Z,36.00
2017-11-29T11:06:18.968Z,26.60
2017-11-29T11:08:47.259Z,29.00
2017-11-29T11:11:15.659Z,31.60
2017-11-29T11:13:44.358Z,29.90
2017-11-29T11:16:12.610Z,29.90
2017-11-29T11:18:41.002Z,42.40
2017-11-29T11:21:09.318Z,38.70
2017-11-29T11:23:37.606Z,34.40
2017-11-29T11:26:05.890Z,32.20
2017-11-29T11:28:34.169Z,27.80
2017-11-29T11:31:02.810Z,25.20
2017-11-29T11:33:31.265Z,26.70
2017-11-29T11:35:59.554Z,36.50
2017-11-29T11:38:27.828Z,27.80
2017-11-29T11:40:56.163Z,29.00
2017-11-29T11:43:24.445Z,29.60
2017-11-29T11:45:52.682Z,30.80
2017-11-29T11:48:21.408Z,35.10
2017-11-29T11:50:49.717Z,35.30
2017-11-29T11:53:18.018Z,29.10
2017-11-29T11:55:46.306Z,29.30
2017-11-29T11:58:14.588Z,39.00
2017-11-29T12:00:43.229Z,32.20
2017-11-29T12:03:11.509Z,32.00
2017-11-29T12:05:40.651Z,29.60
2017-11-29T12:08:08.893Z,34.70
2017-11-29T12:10:37.192Z,35.90
2017-11-29T12:13:05.506Z,29.40
2017-11-29T12:15:33.811Z,31.70
2017-11-29T12:18:02.082Z,33.10
2017-11-29T12:20:30.829Z,27.30
2017-11-29T12:22:59.941Z,33.80
2017-11-29T12:25:28.330Z,39.10
2017-11-29T12:27:56.607Z,35.00
2017-11-29T12:30:24.901Z,26.10
2017-11-29T12:32:53.181Z,33.40
2017-11-29T12:35:21.461Z,29.00
2017-11-29T12:37:49.717Z,34.40
2017-11-29T12:40:18.702Z,32.80
2017-11-29T12:42:47.994Z,30.80
2017-11-29T12:45:17.988Z,24.20
2017-11-29T12:47:47.062Z,23.90
2017-11-29T12:50:27.888Z,26.10
2017-11-29T12:52:56.872Z,29.60
2017-11-29T12:55:25.779Z,30.30
2017-11-29T12:57:54.671Z,30.10
2017-11-29T13:00:23.700Z,28.90
2017-11-29T13:02:52.780Z,29.70
2017-11-29T13:05:21.760Z,29.30
2017-11-29T13:07:51.265Z,41.90
2017-11-29T13:10:20.776Z,41.80
2017-11-29T13:12:49.830Z,28.00
2017-11-29T13:15:18.898Z,28.10
2017-11-29T13:17:48.044Z,28.00
2017-11-29T13:20:16.837Z,39.00
2017-11-29T13:22:46.142Z,40.70
2017-11-29T13:25:15.159Z,29.50
2017-11-29T13:27:44.641Z,27.40
2017-11-29T13:30:13.769Z,27.00
2017-11-29T13:32:43.077Z,38.40
2017-11-29T13:35:12.710Z,42.70
2017-11-29T13:37:42.230Z,42.70
2017-11-29T13:40:11.212Z,32.90
2017-11-29T13:42:42.062Z,47.00
2017-11-29T13:45:10.770Z,44.30
2017-11-29T13:47:39.042Z,31.70
2017-11-29T13:50:07.401Z,34.70
2017-11-29T13:52:36.582Z,34.70
2017-11-29T13:55:05.706Z,42.50
2017-11-29T13:57:34.761Z,40.30
2017-11-29T14:00:02.990Z,29.70
2017-11-29T14:02:31.652Z,33.70
2017-11-29T14:04:59.950Z,33.50
2017-11-29T14:07:28.385Z,36.80
2017-11-29T14:09:57.586Z,27.90
2017-11-29T14:12:25.965Z,30.60
2017-11-29T14:14:54.208Z,35.40
2017-11-29T14:17:22.859Z,53.00
2017-11-29T14:19:51.152Z,53.00
2017-11-29T14:22:19.421Z,40.20
2017-11-29T14:24:47.682Z,49.50
2017-11-29T14:27:15.999Z,37.10
2017-11-29T14:29:44.260Z,47.80
2017-11-29T14:32:12.537Z,50.10
2017-11-29T14:34:41.224Z,52.60
2017-11-29T14:37:09.476Z,52.60
2017-11-29T14:39:37.783Z,42.40
2017-11-29T14:42:06.139Z,44.10
2017-11-29T14:44:35.124Z,45.90
2017-11-29T14:47:03.459Z,48.00
2017-11-29T14:49:32.499Z,47.10
2017-11-29T14:52:00.778Z,52.30
2017-11-29T14:54:29.482Z,52.10
2017-11-29T14:56:58.147Z,45.30
2017-11-29T14:59:26.434Z,45.30
2017-11-29T15:01:55.008Z,45.90
2017-11-29T15:04:23.294Z,54.80
2017-11-29T15:06:51.628Z,58.00
2017-11-29T15:09:20.324Z,48.30
2017-11-29T15:11:48.805Z,52.90
2017-11-29T15:14:17.210Z,47.00
2017-11-29T15:16:45.720Z,46.20
2017-11-29T15:19:14.026Z,55.20
2017-11-29T15:21:42.281Z,54.50
2017-11-29T15:24:10.601Z,45.00
2017-11-29T15:26:38.989Z,54.50
2017-11-29T15:29:07.247Z,47.40
2017-11-29T15:31:35.578Z,43.90
2017-11-29T15:34:04.684Z,49.20
2017-11-29T15:36:32.960Z,50.50
2017-11-29T15:39:01.353Z,48.30
2017-11-29T15:41:29.691Z,45.60
2017-11-29T15:43:58.381Z,44.30
2017-11-29T15:46:26.703Z,44.30
2017-11-29T15:48:54.959Z,47.50
2017-11-29T15:51:23.231Z,49.50
2017-11-29T15:53:51.573Z,51.50
2017-11-29T15:56:19.853Z,49.20
2017-11-29T15:58:48.989Z,50.10
2017-11-29T16:01:18.145Z,56.10
2017-11-29T16:03:46.889Z,48.70
2017-11-29T16:06:15.173Z,48.90
2017-11-29T16:08:44.199Z,55.10
2017-11-29T16:11:12.469Z,54.90
2017-11-29T16:13:40.727Z,51.40
2017-11-29T16:16:09.052Z,46.40
2017-11-29T16:18:37.684Z,47.00
2017-11-29T16:21:06.080Z,47.10
2017-11-29T16:23:35.133Z,49.30
2017-11-29T16:26:03.386Z,60.30
2017-11-29T16:28:31.653Z,54.80
2017-11-29T16:31:01.715Z,51.70
2017-11-29T16:33:31.425Z,51.70
2017-11-29T16:35:59.664Z,55.50
2017-11-29T16:38:28.393Z,57.70
2017-11-29T16:40:56.636Z,57.70
2017-11-29T16:43:24.906Z,59.40
2017-11-29T16:45:53.529Z,56.10
2017-11-29T16:48:21.771Z,56.10
2017-11-29T16:50:50.057Z,56.70
2017-11-29T16:53:18.365Z,58.30
2017-11-29T16:55:46.642Z,58.30
2017-11-29T16:58:15.287Z,69.20
2017-11-29T17:00:43.938Z,50.20
2017-11-29T17:03:12.299Z,50.20
2017-11-29T17:05:40.575Z,59.70
2017-11-29T17:08:08.854Z,62.80
2017-11-29T17:10:37.156Z,52.00
2017-11-29T17:13:05.528Z,57.60
2017-11-29T17:15:34.028Z,49.20
2017-11-29T17:18:02.313Z,47.40
2017-11-29T17:20:30.582Z,54.20
2017-11-29T17:22:59.234Z,57.70
2017-11-29T17:25:28.793Z,55.80
2017-11-29T17:27:57.283Z,55.70
2017-11-29T17:30:29.569Z,46.40
2017-11-29T17:32:57.887Z,44.30
2017-11-29T17:35:26.603Z,56.00
2017-11-29T17:37:54.875Z,55.80
2017-11-29T17:40:23.137Z,53.90
2017-11-29T17:42:51.394Z,47.40
2017-11-29T17:45:19.669Z,54.10
2017-11-29T17:47:48.334Z,50.80
2017-11-29T17:50:16.628Z,50.80
2017-11-29T17:52:44.887Z,52.10
2017-11-29T17:55:13.161Z,50.70
2017-11-29T17:57:41.456Z,46.10
2017-11-29T18:00:09.721Z,43.40
2017-11-29T18:02:37.981Z,49.80
2017-11-29T18:05:06.313Z,44.70
2017-11-29T18:07:34.597Z,50.70
2017-11-29T18:10:02.859Z,45.00
2017-11-29T18:12:31.546Z,50.90
2017-11-29T18:15:00.198Z,52.70
2017-11-29T18:17:28.449Z,52.90
2017-11-29T18:19:56.783Z,47.50
2017-11-29T18:22:25.333Z,46.80
2017-11-29T18:24:53.605Z,48.90
2017-11-29T18:27:21.912Z,50.80
2017-11-29T18:29:50.166Z,48.60
2017-11-29T18:32:18.459Z,49.90
2017-11-29T18:34:46.987Z,54.60
2017-11-29T18:37:15.245Z,53.80
2017-11-29T18:39:43.498Z,52.60
2017-11-29T18:42:12.181Z,50.50
2017-11-29T18:44:40.451Z,50.40
2017-11-29T18:47:08.701Z,55.50
2017-11-29T18:49:37.400Z,49.20
2017-11-29T18:52:05.986Z,50.40
2017-11-29T18:54:34.280Z,49.60
2017-11-29T18:57:02.949Z,52.00
2017-11-29T18:59:31.621Z,56.60
2017-11-29T19:01:59.881Z,56.60
2017-11-29T19:04:28.493Z,55.80
2017-11-29T19:06:57.077Z,54.80
2017-11-29T19:09:25.373Z,52.90
2017-11-29T19:11:54.061Z,47.30
2017-11-29T19:14:22.731Z,47.50
2017-11-29T19:16:51.028Z,47.50
2017-11-29T19:19:19.684Z,51.70
2017-11-29T19:21:47.930Z,51.70
2017-11-29T19:24:16.535Z,53.80
2017-11-29T19:26:44.796Z,54.90
2017-11-29T19:29:13.293Z,55.40
2017-11-29T19:31:41.545Z,54.80
2017-11-29T19:34:09.805Z,53.90
2017-11-29T19:36:38.070Z,56.70
2017-11-29T19:39:06.451Z,56.30
2017-11-29T19:41:34.709Z,53.50
2017-11-29T19:44:03.354Z,56.00
2017-11-29T19:46:31.642Z,56.00
2017-11-29T19:49:00.084Z,54.80
2017-11-29T19:51:28.339Z,56.10
2017-11-29T19:53:56.635Z,54.80
2017-11-29T19:56:25.377Z,54.10
2017-11-29T19:58:53.625Z,53.00
2017-11-29T20:01:21.894Z,48.40
2017-11-29T20:03:50.147Z,50.70
2017-11-29T20:06:18.479Z,50.10
2017-11-29T20:08:47.455Z,51.80
2017-11-29T20:11:15.749Z,51.80
2017-11-29T20:13:44.517Z,53.00
2017-11-29T20:16:12.786Z,53.00
2017-11-29T20:18:41.180Z,56.00
2017-11-29T20:21:09.456Z,54.80
2017-11-29T20:23:37.721Z,51.70
2017-11-29T20:26:05.978Z,53.50
2017-11-29T20:28:34.240Z,49.30
2017-11-29T20:31:02.481Z,52.10
2017-11-29T20:33:30.739Z,49.60
2017-11-29T20:35:59.029Z,50.80
2017-11-29T20:38:27.680Z,54.60
2017-11-29T20:40:55.930Z,54.60
2017-11-29T20:43:24.229Z,55.40
2017-11-29T20:45:52.487Z,55.10
2017-11-29T20:48:21.896Z,54.90
2017-11-29T20:50:50.175Z,54.90
2017-11-29T20:53:18.426Z,56.40
2017-11-29T20:55:46.687Z,56.60
2017-11-29T20:58:14.935Z,57.20
2017-11-29T21:00:43.914Z,58.00
2017-11-29T21:03:12.549Z,59.70
2017-11-29T21:05:40.817Z,61.20
2017-11-29T21:08:09.126Z,58.50
2017-11-29T21:10:37.771Z,59.10
2017-11-29T21:13:06.457Z,58.90
2017-11-29T21:15:35.087Z,59.40
2017-11-29T21:18:03.340Z,59.40
2017-11-29T21:20:31.600Z,59.40
2017-11-29T21:22:59.852Z,61.20
2017-11-29T21:25:28.824Z,59.70
2017-11-29T21:27:57.088Z,59.70
2017-11-29T21:30:25.333Z,62.10
2017-11-29T21:32:53.645Z,57.40
2017-11-29T21:35:21.938Z,57.90
2017-11-29T21:37:50.414Z,59.70
2017-11-29T21:40:19.126Z,59.20
2017-11-29T21:42:47.765Z,56.70
2017-11-29T21:45:16.026Z,56.90
2017-11-29T21:47:44.295Z,57.70
2017-11-29T21:50:12.681Z,58.60
2017-11-29T21:52:40.958Z,61.50
2017-11-29T21:55:09.230Z,57.60
2017-11-29T21:57:37.477Z,57.00
2017-11-29T22:00:05.807Z,57.90
2017-11-29T22:02:34.394Z,58.60
2017-11-29T22:05:02.649Z,58.20
2017-11-29T22:07:30.942Z,58.80
2017-11-29T22:09:59.195Z,59.20
2017-11-29T22:12:27.435Z,59.40
2017-11-29T22:14:55.749Z,60.40
2017-11-29T22:17:23.992Z,56.40
2017-11-29T22:19:52.538Z,55.70
2017-11-29T22:22:20.921Z,58.80
2017-11-29T22:24:49.164Z,57.90
2017-11-29T22:27:17.406Z,59.10
2017-11-29T22:29:45.702Z,54.80
2017-11-29T22:32:13.957Z,54.50
2017-11-29T22:34:42.226Z,56.10
2017-11-29T22:37:10.874Z,55.10
2017-11-29T22:39:39.118Z,55.10
2017-11-29T22:42:07.402Z,57.20
2017-11-29T22:44:35.682Z,58.60
2017-11-29T22:47:03.956Z,60.00
2017-11-29T22:49:32.226Z,62.10
2017-11-29T22:52:00.842Z,63.50
2017-11-29T22:54:29.109Z,64.40
2017-11-29T22:56:57.420Z,63.00
2017-11-29T22:59:26.099Z,62.60
2017-11-29T23:01:55.305Z,63.10
2017-11-29T23:04:23.701Z,63.10
2017-11-29T23:06:51.955Z,64.40
2017-11-29T23:09:20.203Z,64.20
2017-11-29T23:11:48.482Z,63.30
2017-11-29T23:14:16.728Z,65.10
2017-11-29T23:16:44.973Z,65.10
2017-11-29T23:19:13.275Z,64.90
2017-11-29T23:21:41.787Z,62.60
2017-11-29T23:24:10.382Z,61.90
2017-11-29T23:26:38.750Z,62.20
2017-11-29T23:29:07.052Z,64.60
2017-11-29T23:31:35.400Z,61.00
2017-11-29T23:34:04.629Z,60.60
2017-11-29T23:36:32.873Z,61.20
2017-11-29T23:39:01.162Z,61.90
2017-11-29T23:41:29.849Z,62.80
2017-11-29T23:43:58.110Z,62.80
2017-11-29T23:46:26.361Z,63.30
2017-11-29T23:48:54.650Z,64.60
2017-11-29T23:51:23.543Z,62.60
2017-11-29T23:53:51.788Z,61.70
2017-11-29T23:56:20.086Z,60.80
2017-11-29T23:58:48.356Z,61.50
